createdAt,value
2022-10-18T00:02:11.606Z,79.63
2022-10-18T00:04:38.187Z,79.50
2022-10-18T00:07:04.915Z,79.45
2022-10-18T00:09:31.547Z,79.27
2022-10-18T00:11:58.182Z,80.12
2022-10-18T00:14:24.790Z,80.52
2022-10-18T00:16:51.374Z,80.11
2022-10-18T00:19:17.959Z,80.99
2022-10-18T00:24:16.023Z,81.66
2022-10-18T00:26:42.592Z,81.39
2022-10-18T00:29:13.802Z,81.93
2022-10-18T00:31:40.562Z,82.46
2022-10-18T00:34:12.373Z,82.32
2022-10-18T00:36:39.102Z,81.77
2022-10-18T00:39:07.039Z,81.67
2022-10-18T00:41:35.343Z,82.06
2022-10-18T00:44:05.016Z,82.28
2022-10-18T00:46:37.722Z,82.90
2022-10-18T00:49:13.794Z,84.00
2022-10-18T00:52:03.816Z,84.52
2022-10-18T00:54:32.674Z,84.90
2022-10-18T00:56:59.486Z,86.86
2022-10-18T00:59:26.576Z,87.50
2022-10-18T01:01:53.366Z,87.85
2022-10-18T01:04:20.661Z,91.62
2022-10-18T01:07:14.567Z,94.98
2022-10-18T01:09:52.451Z,98.04
2022-10-18T01:12:26.027Z,98.98
2022-10-18T01:15:25.806Z,98.80
2022-10-18T01:18:18.430Z,100.00
2022-10-18T01:21:07.703Z,100.00
2022-10-18T01:24:09.272Z,100.00
2022-10-18T01:27:02.235Z,100.00
2022-10-18T01:29:56.744Z,100.00
2022-10-18T01:32:27.446Z,100.00
2022-10-18T01:34:59.422Z,100.00
2022-10-18T01:37:26.372Z,100.00
2022-10-18T01:39:55.314Z,100.00
2022-10-18T01:42:22.164Z,100.00
2022-10-18T01:44:50.522Z,100.00
2022-10-18T01:47:18.070Z,100.00
2022-10-18T01:49:44.685Z,100.00
2022-10-18T01:52:15.754Z,100.00
2022-10-18T01:54:49.064Z,100.00
2022-10-18T01:57:21.578Z,100.00
2022-10-18T02:00:09.760Z,100.00
2022-10-18T02:02:48.445Z,100.00
2022-10-18T02:05:48.590Z,100.00
2022-10-18T02:08:27.040Z,100.00
2022-10-18T02:11:04.077Z,100.00
2022-10-18T02:13:35.559Z,100.00
2022-10-18T02:16:06.470Z,100.00
2022-10-18T02:18:41.949Z,100.00
2022-10-18T02:21:10.343Z,100.00
2022-10-18T02:23:38.541Z,100.00
2022-10-18T02:26:06.046Z,100.00
2022-10-18T02:28:32.703Z,100.00
2022-10-18T02:31:08.521Z,100.00
2022-10-18T02:33:52.777Z,100.00
2022-10-18T02:36:41.068Z,100.00
2022-10-18T02:39:14.334Z,100.00
2022-10-18T02:41:41.536Z,100.00
2022-10-18T02:44:08.202Z,100.00
2022-10-18T02:46:34.999Z,100.00
2022-10-18T02:49:01.525Z,100.00
2022-10-18T02:51:28.099Z,100.00
2022-10-18T02:53:54.704Z,100.00
2022-10-18T02:56:21.281Z,100.00
2022-10-18T02:58:47.898Z,100.00
2022-10-18T03:01:14.595Z,100.00
2022-10-18T03:03:41.215Z,100.00
2022-10-18T03:06:07.764Z,100.00
2022-10-18T03:08:34.325Z,100.00
2022-10-18T03:11:00.846Z,100.00
2022-10-18T03:13:27.445Z,100.00
2022-10-18T03:15:54.069Z,100.00
2022-10-18T03:18:20.632Z,100.00
2022-10-18T03:20:47.241Z,100.00
2022-10-18T03:23:13.798Z,100.00
2022-10-18T03:25:42.840Z,100.00
2022-10-18T03:28:12.519Z,100.00
2022-10-18T03:30:39.085Z,100.00
2022-10-18T03:33:06.529Z,100.00
2022-10-18T03:35:33.104Z,100.00
2022-10-18T03:37:59.758Z,100.00
2022-10-18T03:40:26.401Z,100.00
2022-10-18T03:42:53.087Z,100.00
2022-10-18T03:45:19.774Z,100.00
2022-10-18T03:47:46.383Z,100.00
2022-10-18T03:50:13.054Z,100.00
2022-10-18T03:52:39.779Z,100.00
2022-10-18T03:55:08.778Z,100.00
2022-10-18T03:57:35.455Z,100.00
2022-10-18T04:00:02.119Z,100.00
2022-10-18T04:02:38.552Z,100.00
2022-10-18T04:05:05.755Z,100.00
2022-10-18T04:07:32.330Z,100.00
2022-10-18T04:09:59.039Z,100.00
2022-10-18T04:12:25.639Z,100.00
2022-10-18T04:14:52.355Z,100.00
2022-10-18T04:17:19.054Z,100.00
2022-10-18T06:43:20.473Z,100.00
2022-10-18T06:45:48.738Z,100.00
2022-10-18T06:48:15.566Z,100.00
2022-10-18T06:50:42.323Z,100.00
2022-10-18T06:53:09.728Z,100.00
2022-10-18T06:55:36.397Z,100.00
2022-10-18T06:58:03.047Z,100.00
2022-10-18T07:00:29.771Z,100.00
2022-10-18T07:02:57.476Z,100.00
2022-10-18T07:05:24.180Z,100.00
2022-10-18T07:07:54.270Z,100.00
2022-10-18T07:10:23.926Z,100.00
2022-10-18T07:12:53.440Z,100.00
2022-10-18T07:15:24.165Z,100.00
2022-10-18T07:17:50.881Z,100.00
2022-10-18T07:20:17.578Z,100.00
2022-10-18T07:22:44.237Z,100.00
2022-10-18T07:25:10.956Z,100.00
2022-10-18T07:27:39.538Z,100.00
2022-10-18T07:30:08.030Z,100.00
2022-10-18T07:32:34.641Z,100.00
2022-10-18T07:35:02.474Z,100.00
2022-10-18T07:37:30.307Z,100.00
2022-10-18T07:39:57.039Z,100.00
2022-10-18T07:42:23.687Z,100.00
2022-10-18T07:44:50.714Z,100.00
2022-10-18T07:47:17.318Z,100.00
2022-10-18T07:49:44.057Z,100.00
2022-10-18T07:52:11.366Z,100.00
2022-10-18T07:54:38.070Z,100.00
2022-10-18T07:57:05.269Z,100.00
2022-10-18T07:59:32.042Z,100.00
2022-10-18T08:01:58.738Z,100.00
2022-10-18T08:04:25.453Z,100.00
2022-10-18T08:06:52.069Z,100.00
2022-10-18T08:09:18.698Z,100.00
2022-10-18T08:11:45.239Z,100.00
2022-10-18T08:14:11.802Z,100.00
2022-10-18T08:16:38.400Z,100.00
2022-10-18T08:19:05.023Z,100.00
2022-10-18T08:21:31.823Z,100.00
2022-10-18T08:23:58.490Z,100.00
2022-10-18T08:26:25.138Z,100.00
2022-10-18T08:29:10.291Z,100.00
2022-10-18T08:31:38.829Z,100.00
2022-10-18T08:34:05.452Z,100.00
2022-10-18T08:36:32.152Z,100.00
2022-10-18T08:38:58.883Z,100.00
2022-10-18T08:41:37.742Z,100.00
2022-10-18T08:44:23.292Z,100.00
2022-10-18T08:46:56.430Z,100.00
2022-10-18T08:49:46.296Z,100.00
2022-10-18T08:52:26.214Z,100.00
2022-10-18T08:55:02.102Z,100.00
2022-10-18T08:57:29.239Z,100.00
2022-10-18T08:59:56.107Z,100.00
2022-10-18T09:02:50.439Z,100.00
2022-10-18T09:05:29.855Z,100.00
2022-10-18T09:08:30.424Z,100.00
2022-10-18T09:11:34.878Z,100.00
2022-10-18T09:14:22.717Z,100.00
2022-10-18T09:17:21.155Z,100.00
2022-10-18T09:19:55.910Z,100.00
2022-10-18T09:22:39.404Z,100.00
2022-10-18T09:25:44.626Z,100.00
2022-10-18T09:28:30.628Z,100.00
2022-10-18T09:31:20.101Z,100.00
2022-10-18T09:34:07.209Z,100.00
2022-10-18T09:36:37.281Z,100.00
2022-10-18T09:39:09.362Z,99.20
2022-10-18T09:42:20.652Z,96.33
2022-10-18T09:44:49.310Z,94.36
2022-10-18T09:47:25.430Z,94.02
2022-10-18T09:49:56.707Z,93.93
2022-10-18T09:52:49.175Z,92.78
2022-10-18T09:55:19.862Z,90.83
2022-10-18T09:58:07.032Z,90.72
2022-10-18T10:00:48.198Z,89.79
2022-10-18T10:03:15.910Z,89.04
2022-10-18T10:05:43.879Z,88.19
2022-10-18T10:08:11.052Z,88.57
2022-10-18T10:10:39.852Z,87.37
2022-10-18T10:13:22.780Z,87.54
2022-10-18T10:15:55.811Z,86.86
2022-10-18T10:18:34.240Z,84.77
2022-10-18T10:21:07.157Z,83.87
2022-10-18T10:23:37.786Z,82.93
2022-10-18T10:26:07.582Z,82.86
2022-10-18T10:28:46.225Z,81.28
2022-10-18T10:31:25.122Z,80.65
2022-10-18T10:34:03.578Z,80.34
2022-10-18T10:36:31.448Z,80.23
2022-10-18T10:39:07.212Z,78.30
2022-10-18T10:41:34.649Z,77.73
2022-10-18T10:44:03.110Z,77.57
2022-10-18T10:46:36.515Z,76.96
2022-10-18T10:49:34.918Z,76.60
2022-10-18T10:52:08.215Z,75.35
2022-10-18T10:54:47.545Z,75.02
2022-10-18T10:57:23.252Z,75.46
2022-10-18T10:59:52.244Z,73.91
2022-10-18T11:02:33.318Z,73.76
2022-10-18T11:05:42.288Z,71.92
2022-10-18T11:08:10.211Z,71.61
2022-10-18T11:10:55.688Z,71.10
2022-10-18T11:13:39.275Z,70.85
2022-10-18T11:16:13.524Z,70.44
2022-10-18T11:18:41.051Z,70.39
2022-10-18T11:21:11.468Z,70.51
2022-10-18T11:23:39.842Z,71.17
2022-10-18T11:26:12.162Z,70.45
2022-10-18T11:29:03.234Z,70.71
2022-10-18T11:31:59.166Z,70.46
2022-10-18T11:35:01.018Z,69.98
2022-10-18T11:37:42.887Z,69.40
2022-10-18T11:40:40.871Z,68.97
2022-10-18T11:43:30.146Z,70.21
2022-10-18T11:46:04.097Z,69.38
2022-10-18T11:49:01.260Z,68.92
2022-10-18T11:52:07.428Z,69.11
2022-10-18T11:54:43.585Z,68.23
2022-10-18T11:57:19.276Z,67.95
2022-10-18T11:59:54.612Z,67.59
2022-10-18T12:02:49.349Z,65.97
2022-10-18T12:05:23.501Z,65.09
2022-10-18T12:07:55.560Z,65.21
2022-10-18T12:10:31.738Z,64.90
2022-10-18T12:13:14.466Z,65.02
2022-10-18T12:15:41.391Z,64.05
2022-10-18T12:18:16.402Z,63.95
2022-10-18T12:20:46.700Z,63.97
2022-10-18T12:23:17.037Z,64.02
2022-10-18T12:25:47.631Z,63.46
2022-10-18T12:28:24.849Z,63.32
2022-10-18T12:31:14.194Z,62.66
2022-10-18T12:33:44.648Z,62.85
2022-10-18T12:36:40.106Z,62.33
2022-10-18T12:39:11.067Z,62.97
2022-10-18T12:41:37.698Z,63.55
2022-10-18T12:44:19.218Z,63.59
2022-10-18T12:46:48.825Z,62.33
2022-10-18T12:49:39.101Z,62.74
2022-10-18T12:52:21.986Z,63.42
2022-10-18T12:55:18.233Z,64.15
2022-10-18T12:57:53.967Z,65.14
2022-10-18T13:00:29.633Z,65.61
2022-10-18T13:03:16.501Z,65.63
2022-10-18T13:05:54.910Z,65.10
2022-10-18T13:08:28.117Z,64.07
2022-10-18T13:11:12.960Z,64.00
2022-10-18T13:16:58.488Z,63.37
2022-10-18T13:19:35.598Z,63.26
2022-10-18T13:22:27.690Z,63.11
2022-10-18T13:24:54.192Z,61.90
2022-10-18T13:27:39.344Z,61.85
2022-10-18T13:30:30.408Z,62.37
2022-10-18T13:33:02.827Z,63.46
2022-10-18T13:35:38.473Z,62.54
2022-10-18T13:38:06.143Z,62.15
2022-10-18T13:40:32.746Z,61.87
2022-10-18T13:43:37.536Z,60.90
2022-10-18T13:46:04.341Z,61.35
2022-10-18T13:48:30.786Z,61.20
2022-10-18T13:51:02.605Z,61.53
2022-10-18T13:53:38.167Z,60.73
2022-10-18T13:56:31.072Z,61.83
2022-10-18T13:59:25.602Z,61.50
2022-10-18T14:02:04.481Z,60.81
2022-10-18T14:04:42.895Z,59.96
2022-10-18T14:07:11.353Z,60.17
2022-10-18T14:09:54.154Z,60.36
2022-10-18T14:12:38.305Z,61.04
2022-10-18T14:15:10.438Z,61.19
2022-10-18T14:17:40.798Z,61.55
2022-10-18T14:20:29.290Z,61.95
2022-10-18T14:23:03.057Z,61.42
2022-10-18T14:25:32.096Z,61.21
2022-10-18T14:28:15.897Z,61.07
2022-10-18T14:31:00.091Z,61.66
2022-10-18T14:33:36.723Z,61.94
2022-10-18T14:36:21.557Z,62.11
2022-10-18T14:39:03.025Z,62.97
2022-10-18T14:41:34.558Z,63.01
2022-10-18T14:44:16.343Z,62.81
2022-10-18T14:46:44.432Z,62.85
2022-10-18T14:49:11.950Z,63.26
2022-10-18T14:51:41.049Z,64.12
2022-10-18T14:54:09.747Z,64.28
2022-10-18T14:56:38.961Z,64.54
2022-10-18T14:59:13.147Z,65.55
2022-10-18T15:01:39.861Z,65.78
2022-10-18T15:04:09.788Z,66.74
2022-10-18T15:06:36.416Z,67.77
2022-10-18T15:09:04.431Z,67.98
2022-10-18T15:11:31.534Z,67.43
2022-10-18T15:14:03.105Z,68.34
2022-10-18T15:16:31.139Z,68.66
2022-10-18T15:19:03.891Z,71.22
2022-10-18T15:21:30.898Z,73.41
2022-10-18T15:24:29.244Z,76.42
2022-10-18T15:27:00.560Z,80.68
2022-10-18T15:29:32.441Z,83.98
2022-10-18T15:32:13.210Z,87.14
2022-10-18T15:34:40.041Z,91.77
2022-10-18T15:37:32.987Z,95.42
2022-10-18T15:40:29.148Z,94.99
2022-10-18T15:43:01.440Z,97.50
2022-10-18T15:45:34.572Z,100.00
2022-10-18T15:48:09.253Z,100.00
2022-10-18T15:50:43.182Z,100.00
2022-10-18T15:53:25.475Z,100.00
2022-10-18T15:56:07.638Z,100.00
2022-10-18T15:58:48.042Z,100.00
2022-10-18T16:01:21.860Z,100.00
2022-10-18T16:03:49.988Z,100.00
2022-10-18T16:06:18.302Z,100.00
2022-10-18T16:08:50.180Z,100.00
2022-10-18T16:11:18.947Z,100.00
2022-10-18T16:13:45.546Z,100.00
2022-10-18T16:16:28.727Z,100.00
2022-10-18T16:18:56.194Z,100.00
2022-10-18T16:21:49.428Z,100.00
2022-10-18T16:24:16.137Z,100.00
2022-10-18T16:26:42.756Z,100.00
2022-10-18T16:29:19.378Z,100.00
2022-10-18T16:31:46.760Z,100.00
2022-10-18T16:34:14.770Z,100.00
2022-10-18T16:36:41.558Z,100.00
2022-10-18T16:39:14.218Z,100.00
2022-10-18T16:41:40.749Z,100.00
2022-10-18T16:44:07.428Z,100.00
2022-10-18T16:46:35.291Z,100.00
2022-10-18T16:49:02.234Z,100.00
2022-10-18T16:51:28.778Z,100.00
2022-10-18T16:53:55.429Z,100.00
2022-10-18T16:56:30.611Z,100.00
2022-10-18T16:58:57.961Z,100.00
2022-10-18T17:01:25.155Z,100.00
2022-10-18T17:03:52.357Z,100.00
2022-10-18T17:06:24.855Z,100.00
2022-10-18T17:08:52.270Z,100.00
2022-10-18T17:11:20.360Z,100.00
2022-10-18T17:13:47.289Z,100.00
2022-10-18T17:16:22.002Z,100.00
2022-10-18T17:18:48.619Z,100.00
2022-10-18T17:21:15.155Z,100.00
2022-10-18T17:23:41.722Z,100.00
2022-10-18T17:26:27.721Z,100.00
2022-10-18T17:28:57.763Z,100.00
2022-10-18T17:31:24.385Z,100.00
2022-10-18T17:33:50.945Z,100.00
2022-10-18T17:36:17.549Z,100.00
2022-10-18T17:38:46.701Z,100.00
2022-10-18T17:41:13.234Z,100.00
2022-10-18T17:43:43.075Z,100.00
2022-10-18T17:46:11.912Z,100.00
2022-10-18T17:48:38.496Z,100.00
2022-10-18T17:51:10.285Z,100.00
2022-10-18T17:53:36.921Z,100.00
2022-10-18T17:56:04.823Z,100.00
2022-10-18T17:58:32.039Z,100.00
2022-10-18T18:01:08.533Z,100.00
2022-10-18T18:03:35.097Z,100.00
2022-10-18T18:06:11.743Z,100.00
2022-10-18T18:08:38.357Z,100.00
2022-10-18T18:11:04.938Z,100.00
2022-10-18T18:13:31.509Z,100.00
2022-10-18T18:15:58.125Z,100.00
2022-10-18T18:18:24.721Z,100.00
2022-10-18T18:20:54.601Z,100.00
2022-10-18T18:23:21.966Z,100.00
2022-10-18T18:25:58.229Z,100.00
2022-10-18T18:28:24.876Z,100.00
2022-10-18T18:30:51.557Z,100.00
2022-10-18T18:33:18.194Z,100.00
2022-10-18T18:35:44.747Z,100.00
2022-10-18T18:38:13.040Z,100.00
2022-10-18T18:40:39.617Z,100.00
2022-10-18T18:43:12.630Z,100.00
2022-10-18T18:45:52.285Z,100.00
2022-10-18T18:48:19.917Z,100.00
2022-10-18T18:50:51.277Z,100.00
2022-10-18T18:53:18.464Z,100.00
2022-10-18T18:55:45.304Z,100.00
2022-10-18T18:58:12.031Z,100.00
2022-10-18T19:00:43.338Z,100.00
2022-10-18T19:03:11.281Z,100.00
2022-10-18T19:05:38.324Z,100.00
2022-10-18T19:08:05.209Z,100.00
2022-10-18T19:10:31.907Z,100.00
2022-10-18T19:12:58.522Z,100.00
2022-10-18T19:15:25.053Z,100.00
2022-10-18T19:17:51.634Z,100.00
2022-10-18T19:20:18.285Z,100.00
2022-10-18T19:22:45.405Z,100.00
2022-10-18T19:25:12.015Z,100.00
2022-10-18T19:27:38.606Z,100.00
2022-10-18T19:30:08.232Z,100.00
2022-10-18T19:32:35.238Z,100.00
2022-10-18T19:35:01.858Z,100.00
2022-10-18T19:37:28.431Z,100.00
2022-10-18T19:39:55.044Z,100.00
2022-10-18T19:42:24.216Z,100.00
2022-10-18T19:44:58.331Z,100.00
2022-10-18T19:47:24.863Z,100.00
2022-10-18T19:49:52.683Z,100.00
2022-10-18T19:52:19.605Z,100.00
2022-10-18T19:54:48.561Z,100.00
2022-10-18T19:57:15.210Z,100.00
2022-10-18T20:02:15.066Z,100.00
2022-10-18T20:04:41.683Z,100.00
2022-10-18T20:07:08.852Z,100.00
2022-10-18T20:09:35.490Z,100.00
2022-10-18T20:12:02.073Z,100.00
2022-10-18T20:14:28.618Z,100.00
2022-10-18T20:16:55.213Z,100.00
2022-10-18T20:19:21.793Z,100.00
2022-10-18T20:21:48.374Z,100.00
2022-10-18T20:24:14.966Z,100.00
2022-10-18T20:26:43.412Z,100.00
2022-10-18T20:29:10.095Z,100.00
2022-10-18T20:31:38.952Z,100.00
2022-10-18T20:34:08.557Z,100.00
2022-10-18T20:36:35.452Z,100.00
2022-10-18T20:39:03.213Z,100.00
2022-10-18T20:41:31.807Z,100.00
2022-10-18T20:44:00.670Z,100.00
2022-10-18T20:46:30.020Z,100.00
2022-10-18T20:48:56.516Z,100.00
2022-10-18T20:51:23.627Z,100.00
2022-10-18T20:53:50.826Z,100.00
2022-10-18T20:56:20.414Z,100.00
2022-10-18T20:58:49.185Z,100.00
2022-10-18T21:01:23.509Z,100.00
2022-10-18T21:03:51.945Z,100.00
2022-10-18T21:06:23.869Z,100.00
2022-10-18T21:08:57.886Z,100.00
2022-10-18T21:11:25.379Z,100.00
2022-10-18T21:13:53.602Z,100.00
2022-10-18T21:16:20.345Z,100.00
2022-10-18T21:18:47.067Z,100.00
2022-10-18T21:21:19.579Z,100.00
2022-10-18T21:23:46.946Z,100.00
2022-10-18T21:26:15.538Z,100.00
2022-10-18T21:28:42.326Z,100.00
2022-10-18T21:31:22.223Z,100.00
2022-10-18T21:33:53.000Z,100.00
2022-10-18T21:36:19.577Z,100.00
2022-10-18T21:38:46.311Z,100.00
2022-10-18T21:41:14.997Z,100.00
2022-10-18T21:43:44.191Z,100.00
2022-10-18T21:46:11.904Z,100.00
2022-10-18T21:48:38.845Z,100.00
2022-10-18T21:51:07.259Z,100.00
2022-10-18T21:53:34.630Z,100.00
2022-10-18T21:56:15.514Z,100.00
2022-10-18T21:58:42.912Z,100.00
2022-10-18T22:01:29.710Z,100.00
2022-10-18T22:03:56.901Z,100.00
2022-10-18T22:06:24.553Z,100.00
2022-10-18T22:08:53.914Z,100.00
2022-10-18T22:11:23.795Z,100.00
2022-10-18T22:13:51.541Z,100.00
2022-10-18T22:16:18.182Z,100.00
2022-10-18T22:18:46.313Z,100.00
2022-10-18T22:21:14.286Z,100.00
2022-10-18T22:23:43.538Z,100.00
2022-10-18T22:26:11.921Z,100.00
2022-10-18T22:28:39.565Z,100.00
2022-10-18T22:31:06.283Z,100.00
2022-10-18T22:33:32.911Z,100.00
2022-10-18T22:36:01.582Z,100.00
2022-10-18T22:38:33.189Z,100.00
2022-10-18T22:41:10.014Z,100.00
2022-10-18T22:43:37.192Z,100.00
2022-10-18T22:46:05.583Z,100.00
2022-10-18T22:48:32.319Z,100.00
2022-10-18T22:50:59.293Z,100.00
2022-10-18T22:53:26.319Z,100.00
2022-10-18T22:55:53.241Z,100.00
2022-10-18T22:58:20.369Z,100.00
2022-10-18T23:00:47.318Z,100.00
2022-10-18T23:03:18.550Z,100.00
2022-10-18T23:05:46.395Z,100.00
2022-10-18T23:08:13.870Z,100.00
2022-10-18T23:10:41.921Z,100.00
2022-10-18T23:13:08.905Z,100.00
2022-10-18T23:15:35.609Z,100.00
2022-10-18T23:18:02.425Z,100.00
2022-10-18T23:20:28.966Z,100.00
2022-10-18T23:22:55.577Z,100.00
2022-10-18T23:25:22.337Z,100.00
2022-10-18T23:27:48.893Z,100.00
2022-10-18T23:30:16.613Z,100.00
2022-10-18T23:32:43.167Z,100.00
2022-10-18T23:35:09.903Z,100.00
2022-10-18T23:37:36.798Z,100.00
2022-10-18T23:40:04.019Z,100.00
2022-10-18T23:42:30.731Z,100.00
2022-10-18T23:44:57.347Z,100.00
2022-10-18T23:47:23.915Z,100.00
2022-10-18T23:49:50.573Z,100.00
2022-10-18T23:52:17.214Z,100.00
2022-10-18T23:57:12.193Z,100.00
2022-10-18T23:59:38.747Z,100.00
